createdAt,value
2019-03-09T00:02:02.378Z,80.70
2019-03-09T00:04:34.210Z,80.50
2019-03-09T00:10:05.644Z,79.90
2019-03-09T00:12:41.222Z,79.90
2019-03-09T00:15:10.223Z,79.60
2019-03-09T00:17:39.070Z,79.50
2019-03-09T00:23:19.938Z,79.30
2019-03-09T00:26:06.633Z,79.50
2019-03-09T00:28:48.599Z,79.80
2019-03-09T00:40:23.060Z,78.40
2019-03-09T00:43:07.368Z,78.70
2019-03-09T00:45:49.576Z,78.30
2019-03-09T00:48:14.897Z,78.40
2019-03-09T00:50:43.523Z,78.00
2019-03-09T00:53:12.144Z,78.00
2019-03-09T00:55:40.804Z,77.40
2019-03-09T00:58:09.935Z,77.50
2019-03-09T01:00:39.928Z,77.30
2019-03-09T01:03:10.283Z,77.10
2019-03-09T01:05:39.776Z,76.90
2019-03-09T01:08:09.103Z,76.60
2019-03-09T01:10:39.213Z,76.80
2019-03-09T01:13:08.139Z,75.90
2019-03-09T01:15:37.032Z,76.60
2019-03-09T01:18:06.220Z,76.40
2019-03-09T01:20:34.957Z,75.70
2019-03-09T01:23:03.848Z,75.40
2019-03-09T01:25:34.873Z,75.30
2019-03-09T01:28:05.207Z,75.20
2019-03-09T01:30:37.206Z,75.30
2019-03-09T01:33:05.975Z,75.50
2019-03-09T01:35:41.695Z,75.50
2019-03-09T01:38:10.949Z,74.90
2019-03-09T01:40:39.556Z,75.50
2019-03-09T01:43:08.261Z,75.50
2019-03-09T01:45:38.448Z,75.30
2019-03-09T01:48:10.957Z,74.80
2019-03-09T01:50:40.155Z,74.50
2019-03-09T01:53:08.968Z,74.60
2019-03-09T01:55:37.938Z,74.20
2019-03-09T01:58:06.485Z,74.40
2019-03-09T02:00:35.520Z,74.50
2019-03-09T02:03:04.224Z,74.40
2019-03-09T02:05:32.841Z,74.80
2019-03-09T02:10:49.347Z,75.20
2019-03-09T02:13:19.569Z,74.90
2019-03-09T02:15:49.492Z,74.80
2019-03-09T02:18:18.645Z,73.90
2019-03-09T02:20:47.384Z,74.10
2019-03-09T02:23:16.007Z,73.60
2019-03-09T02:25:45.638Z,73.40
2019-03-09T02:28:17.045Z,73.40
2019-03-09T02:30:46.162Z,73.80
2019-03-09T02:33:15.224Z,74.10
2019-03-09T02:35:45.232Z,75.00
2019-03-09T02:38:18.348Z,76.00
2019-03-09T02:40:50.523Z,75.90
2019-03-09T02:43:19.247Z,75.20
2019-03-09T02:45:47.838Z,75.80
2019-03-09T02:48:18.093Z,76.80
2019-03-09T02:50:57.390Z,75.90
2019-03-09T02:53:27.986Z,76.30
2019-03-09T02:59:08.291Z,77.70
2019-03-09T03:01:42.213Z,77.90
2019-03-09T03:04:15.676Z,77.90
2019-03-09T03:06:48.961Z,77.40
2019-03-09T03:09:40.487Z,79.00
2019-03-09T03:29:44.895Z,82.70
2019-03-09T03:32:13.466Z,83.60
2019-03-09T03:34:42.001Z,82.50
2019-03-09T03:37:10.548Z,82.90
2019-03-09T03:39:39.263Z,82.00
2019-03-09T03:42:07.867Z,83.10
2019-03-09T03:44:57.389Z,82.30
2019-03-09T03:47:44.342Z,83.40
2019-03-09T03:50:12.986Z,82.70
2019-03-09T03:52:41.876Z,84.50
2019-03-09T03:55:11.458Z,83.80
2019-03-09T03:57:40.111Z,86.10
2019-03-09T04:00:29.514Z,86.30
2019-03-09T04:03:00.359Z,85.90
2019-03-09T04:05:29.341Z,85.80
2019-03-09T04:07:58.015Z,85.40
2019-03-09T04:10:26.819Z,85.80
2019-03-09T04:13:16.271Z,85.10
2019-03-09T04:15:44.933Z,83.50
2019-03-09T04:18:13.473Z,84.60
2019-03-09T04:20:42.025Z,82.90
2019-03-09T04:23:11.263Z,85.50
2019-03-09T04:25:39.875Z,84.30
2019-03-09T04:28:18.812Z,84.50
2019-03-09T04:30:50.509Z,86.00
2019-03-09T04:33:19.255Z,85.40
2019-03-09T04:35:58.295Z,84.90
2019-03-09T04:38:26.809Z,87.10
2019-03-09T04:40:55.363Z,88.80
2019-03-09T04:43:44.768Z,87.60
2019-03-09T04:46:13.338Z,87.90
2019-03-09T04:48:41.900Z,88.20
2019-03-09T04:51:10.711Z,89.00
2019-03-09T04:53:39.297Z,90.00
2019-03-09T04:56:07.914Z,88.20
2019-03-09T04:58:36.458Z,88.20
2019-03-09T05:01:05.099Z,88.10
2019-03-09T05:03:33.926Z,87.20
2019-03-09T05:06:02.464Z,87.30
2019-03-09T05:08:51.879Z,87.90
2019-03-09T05:11:20.616Z,88.50
2019-03-09T05:13:49.591Z,87.90
2019-03-09T05:16:18.447Z,88.00
2019-03-09T05:18:47.082Z,88.30
2019-03-09T05:21:27.526Z,89.20
2019-03-09T05:23:56.108Z,88.10
2019-03-09T05:26:24.712Z,88.40
2019-03-09T05:28:53.250Z,88.60
2019-03-09T05:31:21.834Z,88.00
2019-03-09T05:33:50.374Z,88.00
2019-03-09T05:36:18.919Z,89.50
2019-03-09T05:38:47.484Z,89.40
2019-03-09T05:41:16.208Z,89.50
2019-03-09T05:43:44.787Z,89.50
2019-03-09T05:46:13.350Z,89.40
2019-03-09T05:48:41.888Z,89.30
2019-03-09T05:51:10.466Z,89.30
2019-03-09T05:53:39.003Z,89.50
2019-03-09T05:56:07.912Z,89.40
2019-03-09T05:58:36.495Z,89.60
2019-03-09T06:01:05.191Z,90.00
2019-03-09T06:03:33.730Z,89.50
2019-03-09T06:06:02.455Z,89.70
2019-03-09T06:08:42.869Z,90.10
2019-03-09T06:11:11.570Z,90.50
2019-03-09T06:13:40.191Z,90.40
2019-03-09T06:16:08.811Z,91.00
2019-03-09T06:18:37.437Z,91.00
2019-03-09T06:21:06.049Z,91.00
2019-03-09T06:23:34.601Z,91.00
2019-03-09T06:26:03.273Z,90.60
2019-03-09T06:28:31.788Z,90.80
2019-03-09T06:31:00.401Z,90.90
2019-03-09T06:33:30.831Z,90.90
2019-03-09T06:36:05.127Z,90.30
2019-03-09T06:38:54.503Z,90.00
2019-03-09T06:41:34.878Z,90.10
2019-03-09T06:44:03.463Z,89.90
2019-03-09T06:46:32.008Z,90.20
2019-03-09T06:49:00.629Z,89.80
2019-03-09T06:51:29.145Z,89.60
2019-03-09T06:53:57.747Z,90.10
2019-03-09T06:56:26.904Z,90.40
2019-03-09T06:58:55.445Z,90.40
2019-03-09T07:01:24.109Z,91.20
2019-03-09T07:03:52.685Z,90.20
2019-03-09T07:06:22.126Z,89.50
2019-03-09T07:08:50.626Z,88.60
2019-03-09T07:11:19.415Z,88.70
2019-03-09T07:13:52.833Z,87.40
2019-03-09T07:16:18.185Z,87.20
2019-03-09T07:18:46.826Z,86.80
2019-03-09T07:21:15.361Z,84.30
2019-03-09T07:23:44.268Z,85.10
2019-03-09T07:26:12.821Z,83.20
2019-03-09T07:28:41.357Z,78.80
2019-03-09T07:31:10.210Z,75.10
2019-03-09T07:33:38.799Z,70.20
2019-03-09T07:36:07.435Z,64.80
2019-03-09T07:38:36.106Z,63.20
2019-03-09T07:41:04.755Z,58.30
2019-03-09T07:43:33.332Z,56.20
2019-03-09T07:46:01.904Z,53.20
2019-03-09T07:48:35.168Z,52.70
2019-03-09T07:51:06.932Z,53.10
2019-03-09T07:53:35.485Z,52.90
2019-03-09T07:56:04.109Z,51.80
2019-03-09T07:58:32.701Z,50.70
2019-03-09T08:01:06.787Z,51.60
2019-03-09T08:03:35.335Z,51.10
2019-03-09T08:06:03.980Z,51.20
2019-03-09T08:08:33.728Z,52.70
2019-03-09T08:11:02.337Z,56.10
2019-03-09T08:13:30.881Z,55.80
2019-03-09T08:16:00.498Z,55.30
2019-03-09T08:18:30.601Z,55.70
2019-03-09T08:20:59.165Z,53.70
2019-03-09T08:23:27.674Z,56.70
2019-03-09T08:25:58.700Z,56.90
2019-03-09T08:28:32.882Z,55.20
2019-03-09T08:31:02.687Z,56.20
2019-03-09T08:33:31.346Z,52.40
2019-03-09T08:35:59.980Z,51.40
2019-03-09T08:38:30.042Z,49.80
2019-03-09T08:41:05.806Z,49.70
2019-03-09T08:43:37.106Z,48.80
2019-03-09T08:46:08.048Z,48.70
2019-03-09T08:48:38.062Z,46.90
2019-03-09T08:51:06.623Z,46.30
2019-03-09T08:53:35.165Z,46.10
2019-03-09T08:56:03.850Z,46.70
2019-03-09T08:58:32.401Z,44.50
2019-03-09T09:01:06.912Z,46.30
2019-03-09T09:03:49.211Z,47.30
2019-03-09T09:06:25.944Z,49.30
2019-03-09T09:09:02.569Z,50.00
2019-03-09T09:11:34.499Z,51.10
2019-03-09T09:14:03.068Z,51.70
2019-03-09T09:16:36.860Z,50.70
2019-03-09T09:19:11.604Z,49.10
2019-03-09T09:21:44.971Z,50.20
2019-03-09T09:24:36.263Z,49.80
2019-03-09T09:27:06.884Z,50.20
2019-03-09T09:32:36.901Z,52.00
2019-03-09T09:35:31.048Z,52.50
2019-03-09T09:37:59.711Z,52.00
2019-03-09T09:40:29.811Z,52.50
2019-03-09T09:43:00.595Z,52.70
2019-03-09T09:48:05.341Z,52.40
2019-03-09T09:50:49.717Z,52.70
2019-03-09T09:53:23.432Z,52.60
2019-03-09T09:55:58.341Z,52.70
2019-03-09T10:01:16.372Z,54.40
2019-03-09T10:03:45.261Z,54.20
2019-03-09T10:06:14.909Z,54.80
2019-03-09T10:08:44.562Z,56.60
2019-03-09T10:11:13.233Z,55.10
2019-03-09T10:13:44.325Z,54.80
2019-03-09T10:16:25.226Z,56.20
2019-03-09T10:18:56.902Z,54.30
2019-03-09T10:27:22.603Z,53.60
2019-03-09T10:29:52.898Z,50.30
2019-03-09T10:32:21.505Z,49.80
2019-03-09T10:34:50.086Z,49.40
2019-03-09T10:37:21.058Z,48.60
2019-03-09T10:39:49.937Z,48.40
2019-03-09T10:42:20.146Z,49.40
2019-03-09T10:44:49.831Z,48.90
2019-03-09T10:47:20.492Z,48.40
2019-03-09T10:49:49.279Z,47.80
2019-03-09T10:52:17.818Z,46.00
2019-03-09T10:54:46.367Z,49.00
2019-03-09T10:57:14.949Z,49.60
2019-03-09T10:59:43.490Z,49.50
2019-03-09T11:02:12.233Z,49.50
2019-03-09T11:04:40.775Z,49.30
2019-03-09T11:07:09.410Z,49.90
2019-03-09T11:09:37.878Z,49.90
2019-03-09T11:12:06.419Z,50.50
2019-03-09T11:14:35.005Z,50.80
2019-03-09T11:17:03.674Z,51.20
2019-03-09T11:19:32.228Z,51.20
2019-03-09T11:22:00.806Z,51.00
2019-03-09T11:24:29.355Z,51.10
2019-03-09T11:26:57.902Z,49.80
2019-03-09T11:29:28.227Z,49.00
2019-03-09T11:31:56.775Z,48.30
2019-03-09T11:34:25.342Z,48.00
2019-03-09T11:36:53.906Z,47.60
2019-03-09T11:39:22.516Z,47.40
2019-03-09T11:41:51.133Z,47.80
2019-03-09T11:44:19.682Z,45.90
2019-03-09T11:46:48.341Z,47.60
2019-03-09T11:49:17.213Z,48.00
2019-03-09T11:51:45.851Z,45.00
2019-03-09T11:54:14.402Z,46.10
2019-03-09T11:56:43.387Z,45.80
2019-03-09T11:59:11.916Z,45.60
2019-03-09T12:01:40.465Z,44.90
2019-03-09T12:04:09.050Z,47.00
2019-03-09T12:06:37.904Z,46.00
2019-03-09T12:09:06.535Z,44.10
2019-03-09T12:11:35.318Z,44.60
2019-03-09T12:14:04.020Z,44.60
2019-03-09T12:16:32.607Z,44.40
2019-03-09T12:19:01.316Z,43.90
2019-03-09T12:21:29.846Z,43.00
2019-03-09T12:23:58.483Z,43.60
2019-03-09T12:26:27.032Z,43.60
2019-03-09T12:28:55.863Z,42.90
2019-03-09T12:31:24.414Z,43.30
2019-03-09T12:33:52.951Z,44.00
2019-03-09T12:36:21.619Z,45.30
2019-03-09T12:38:50.278Z,45.40
2019-03-09T12:41:18.971Z,46.00
2019-03-09T12:43:47.867Z,44.50
2019-03-09T12:46:16.448Z,43.60
2019-03-09T12:48:45.079Z,44.80
2019-03-09T12:51:13.626Z,45.00
2019-03-09T12:53:42.186Z,46.10
2019-03-09T12:56:10.750Z,46.70
2019-03-09T12:58:39.295Z,44.90
2019-03-09T13:01:07.868Z,44.50
2019-03-09T13:03:37.974Z,44.90
2019-03-09T13:06:07.241Z,46.80
2019-03-09T13:08:35.785Z,47.30
2019-03-09T13:11:04.458Z,46.00
2019-03-09T13:13:33.053Z,46.50
2019-03-09T13:16:01.611Z,45.80
2019-03-09T13:18:30.140Z,48.10
2019-03-09T13:20:58.708Z,49.00
2019-03-09T13:23:27.320Z,48.40
2019-03-09T13:25:55.931Z,47.80
2019-03-09T13:28:24.498Z,46.30
2019-03-09T13:30:53.031Z,46.70
2019-03-09T13:33:21.572Z,48.70
2019-03-09T13:35:50.217Z,46.20
2019-03-09T13:38:18.769Z,44.50
2019-03-09T13:40:47.318Z,43.80
2019-03-09T13:43:16.214Z,45.80
2019-03-09T13:45:44.755Z,47.80
2019-03-09T13:48:14.103Z,48.80
2019-03-09T13:50:42.703Z,47.60
2019-03-09T13:53:11.336Z,47.70
2019-03-09T13:55:40.047Z,46.60
2019-03-09T13:58:08.968Z,47.60
2019-03-09T14:00:40.707Z,47.40
2019-03-09T14:03:08.043Z,47.20
2019-03-09T14:05:36.590Z,47.20
2019-03-09T14:08:05.217Z,46.40
2019-03-09T14:10:33.791Z,46.60
2019-03-09T14:13:02.354Z,47.50
2019-03-09T14:15:31.014Z,46.80
2019-03-09T14:17:59.548Z,46.00
2019-03-09T14:20:28.080Z,46.20
2019-03-09T14:22:56.907Z,44.60
2019-03-09T14:25:25.695Z,44.00
2019-03-09T14:27:54.344Z,45.00
2019-03-09T14:30:23.169Z,44.50
2019-03-09T14:32:52.060Z,45.10
2019-03-09T14:35:20.635Z,47.70
2019-03-09T14:37:51.580Z,52.60
2019-03-09T14:40:20.251Z,58.40
2019-03-09T14:42:48.829Z,62.00
2019-03-09T14:45:20.589Z,63.20
2019-03-09T14:47:49.141Z,66.60
2019-03-09T14:50:17.850Z,68.30
2019-03-09T14:52:46.394Z,72.80
2019-03-09T14:55:15.090Z,73.00
2019-03-09T14:57:43.797Z,71.80
2019-03-09T15:02:54.887Z,74.50
2019-03-09T15:05:23.570Z,74.10
2019-03-09T15:07:52.391Z,74.40
2019-03-09T15:10:21.048Z,72.90
2019-03-09T15:12:49.650Z,72.10
2019-03-09T15:15:19.537Z,74.00
2019-03-09T15:17:48.256Z,71.90
2019-03-09T15:20:17.553Z,67.70
2019-03-09T15:22:46.165Z,65.50
2019-03-09T15:25:19.159Z,67.10
2019-03-09T15:27:48.234Z,66.70
2019-03-09T15:30:21.056Z,66.60
2019-03-09T15:32:49.634Z,66.50
2019-03-09T15:35:18.802Z,66.00
2019-03-09T15:37:47.870Z,64.90
2019-03-09T15:40:17.903Z,65.20
2019-03-09T15:42:46.588Z,64.60
2019-03-09T15:45:19.367Z,63.60
2019-03-09T15:50:47.458Z,64.30
2019-03-09T15:53:15.987Z,67.50
2019-03-09T15:55:45.564Z,72.60
2019-03-09T15:58:14.825Z,72.20
2019-03-09T16:00:44.032Z,74.30
2019-03-09T16:03:14.431Z,75.20
2019-03-09T16:05:43.255Z,76.50
2019-03-09T16:08:11.949Z,77.80
2019-03-09T16:10:40.551Z,76.90
2019-03-09T16:13:09.380Z,77.10
2019-03-09T16:15:38.007Z,77.10
2019-03-09T16:18:06.623Z,78.40
2019-03-09T16:20:35.316Z,78.10
2019-03-09T16:23:05.449Z,79.30
2019-03-09T16:25:35.239Z,77.80
2019-03-09T16:28:06.995Z,80.60
2019-03-09T16:30:35.833Z,82.20
2019-03-09T16:33:05.713Z,83.90
2019-03-09T16:38:34.220Z,85.20
2019-03-09T16:41:05.010Z,85.70
2019-03-09T16:43:33.664Z,83.80
2019-03-09T16:46:02.348Z,85.70
2019-03-09T16:48:30.871Z,86.40
2019-03-09T16:50:59.443Z,86.40
2019-03-09T16:53:27.992Z,87.80
2019-03-09T16:55:56.548Z,87.00
2019-03-09T16:58:25.115Z,88.50
2019-03-09T17:00:53.661Z,83.00
2019-03-09T17:03:22.332Z,83.20
2019-03-09T17:05:52.536Z,83.90
2019-03-09T17:08:21.430Z,85.80
2019-03-09T17:10:50.238Z,83.60
2019-03-09T17:13:18.818Z,85.50
2019-03-09T17:15:48.967Z,82.50
2019-03-09T17:18:17.591Z,81.60
2019-03-09T17:20:46.390Z,84.10
2019-03-09T17:23:14.958Z,84.20
2019-03-09T17:25:43.548Z,83.70
2019-03-09T17:28:12.470Z,82.70
2019-03-09T17:30:41.062Z,83.80
2019-03-09T17:33:09.614Z,83.10
2019-03-09T17:35:38.501Z,78.40
2019-03-09T17:38:07.115Z,80.80
2019-03-09T17:40:35.649Z,79.70
2019-03-09T17:43:04.277Z,79.20
2019-03-09T17:45:32.809Z,77.00
2019-03-09T17:48:01.390Z,76.10
2019-03-09T17:50:30.201Z,75.20
2019-03-09T17:52:59.091Z,75.10
2019-03-09T17:55:27.731Z,73.20
2019-03-09T17:57:56.342Z,73.60
2019-03-09T18:00:27.734Z,70.70
2019-03-09T18:02:56.376Z,71.90
2019-03-09T18:05:25.183Z,71.00
2019-03-09T18:07:53.811Z,71.60
2019-03-09T18:10:37.502Z,70.10
2019-03-09T18:13:07.118Z,70.60
2019-03-09T18:15:35.646Z,71.20
2019-03-09T18:18:04.279Z,70.30
2019-03-09T18:20:32.838Z,69.80
2019-03-09T18:23:01.399Z,70.60
2019-03-09T18:25:29.952Z,69.30
2019-03-09T18:27:58.580Z,67.50
2019-03-09T18:30:27.254Z,67.90
2019-03-09T18:32:55.801Z,69.10
2019-03-09T18:35:24.751Z,67.80
2019-03-09T18:37:53.350Z,67.60
2019-03-09T18:40:22.238Z,68.30
2019-03-09T18:42:50.782Z,68.30
2019-03-09T18:45:21.467Z,68.80
2019-03-09T18:47:50.343Z,68.60
2019-03-09T18:50:19.014Z,67.50
2019-03-09T18:52:48.219Z,68.70
2019-03-09T18:55:16.866Z,68.90
2019-03-09T18:57:45.414Z,67.80
2019-03-09T19:00:21.138Z,68.70
2019-03-09T19:02:49.814Z,66.60
2019-03-09T19:05:18.535Z,67.50
2019-03-09T19:07:47.146Z,67.50
2019-03-09T19:10:25.176Z,66.20
2019-03-09T19:12:55.242Z,66.70
2019-03-09T19:15:24.205Z,65.50
2019-03-09T19:17:52.838Z,65.70
2019-03-09T19:20:22.456Z,66.50
2019-03-09T19:22:51.148Z,66.40
2019-03-09T19:25:19.770Z,66.50
2019-03-09T19:27:48.306Z,66.30
2019-03-09T19:30:18.941Z,66.20
2019-03-09T19:32:47.563Z,67.20
2019-03-09T19:35:16.288Z,65.50
2019-03-09T19:37:45.230Z,67.00
2019-03-09T19:40:19.718Z,66.70
2019-03-09T19:42:48.941Z,66.40
2019-03-09T19:45:19.782Z,66.90
2019-03-09T19:47:48.327Z,67.20
2019-03-09T19:50:40.850Z,68.10
2019-03-09T19:53:09.354Z,68.10
2019-03-09T19:55:38.152Z,68.10
2019-03-09T19:58:06.948Z,68.00
2019-03-09T20:00:35.627Z,68.80
2019-03-09T20:03:04.468Z,68.00
2019-03-09T20:05:52.409Z,68.10
2019-03-09T20:08:20.916Z,67.80
2019-03-09T20:10:49.560Z,67.50
2019-03-09T20:13:18.383Z,66.80
2019-03-09T20:15:46.982Z,67.20
2019-03-09T20:18:15.548Z,68.20
2019-03-09T20:20:44.087Z,67.40
2019-03-09T20:23:13.439Z,68.10
2019-03-09T20:25:42.365Z,68.20
2019-03-09T20:28:10.934Z,68.30
2019-03-09T20:30:39.468Z,69.10
2019-03-09T20:33:09.861Z,68.20
2019-03-09T20:35:38.414Z,67.20
2019-03-09T20:38:07.031Z,66.60
2019-03-09T20:40:35.917Z,66.30
2019-03-09T20:43:04.695Z,67.20
2019-03-09T20:45:33.759Z,66.90
2019-03-09T20:48:02.585Z,66.60
2019-03-09T20:50:32.359Z,66.90
2019-03-09T20:53:00.951Z,67.50
2019-03-09T20:55:29.515Z,67.60
2019-03-09T20:57:58.023Z,68.10
2019-03-09T21:00:26.653Z,68.20
2019-03-09T21:02:55.626Z,68.90
2019-03-09T21:05:24.690Z,69.30
2019-03-09T21:07:53.631Z,69.70
2019-03-09T21:10:22.229Z,69.90
2019-03-09T21:13:15.506Z,70.10
2019-03-09T21:15:44.148Z,70.00
2019-03-09T21:18:12.829Z,69.50
2019-03-09T21:20:41.447Z,69.60
2019-03-09T21:23:09.972Z,68.90
2019-03-09T21:25:38.603Z,69.10
2019-03-09T21:28:07.364Z,68.80
2019-03-09T21:30:42.350Z,69.00
2019-03-09T21:33:11.123Z,69.20
2019-03-09T21:35:40.164Z,69.50
2019-03-09T21:38:08.719Z,69.40
2019-03-09T21:40:37.737Z,69.20
2019-03-09T21:43:06.310Z,68.20
2019-03-09T21:45:34.879Z,69.00
2019-03-09T21:48:03.413Z,68.60
2019-03-09T21:50:31.954Z,67.90
2019-03-09T21:53:00.529Z,68.30
2019-03-09T21:55:29.331Z,67.90
2019-03-09T21:57:57.874Z,67.50
2019-03-09T22:00:26.434Z,67.40
2019-03-09T22:02:55.048Z,68.10
2019-03-09T22:05:23.595Z,68.30
2019-03-09T22:07:52.163Z,68.20
2019-03-09T22:10:20.709Z,69.00
2019-03-09T22:12:49.273Z,69.40
2019-03-09T22:15:18.660Z,69.40
2019-03-09T22:17:47.327Z,68.70
2019-03-09T22:20:15.953Z,69.70
2019-03-09T22:22:44.871Z,70.30
2019-03-09T22:25:15.623Z,70.10
2019-03-09T22:27:45.797Z,70.70
2019-03-09T22:30:19.142Z,70.60
2019-03-09T22:32:47.827Z,70.80
2019-03-09T22:35:16.796Z,71.40
2019-03-09T22:37:45.404Z,71.60
2019-03-09T22:40:18.013Z,72.30
2019-03-09T22:42:47.050Z,71.90
2019-03-09T22:45:16.140Z,71.20
2019-03-09T22:47:44.749Z,72.00
2019-03-09T22:50:21.430Z,71.00
2019-03-09T22:52:49.982Z,70.90
2019-03-09T22:55:18.871Z,71.00
2019-03-09T22:57:47.438Z,70.70
2019-03-09T23:00:21.516Z,69.80
2019-03-09T23:02:50.146Z,69.40
2019-03-09T23:05:18.848Z,69.20
2019-03-09T23:07:47.450Z,70.00
2019-03-09T23:10:18.626Z,70.10
2019-03-09T23:12:47.197Z,70.30
2019-03-09T23:15:17.285Z,69.40
2019-03-09T23:17:46.773Z,70.00
2019-03-09T23:20:16.442Z,69.10
2019-03-09T23:22:45.148Z,68.30
2019-03-09T23:25:14.620Z,68.60
2019-03-09T23:27:43.325Z,69.00
2019-03-09T23:30:20.029Z,68.00
2019-03-09T23:32:48.841Z,68.70
2019-03-09T23:35:17.434Z,66.80
2019-03-09T23:37:47.114Z,67.20
2019-03-09T23:40:21.310Z,67.50
2019-03-09T23:42:50.100Z,66.20
2019-03-09T23:45:45.192Z,66.10
2019-03-09T23:48:13.727Z,66.60
2019-03-09T23:50:42.398Z,65.40
2019-03-09T23:53:11.033Z,65.10
2019-03-09T23:55:39.667Z,64.90
2019-03-09T23:58:08.626Z,65.60
